createdAt,value
2023-01-29T00:01:48.834Z,-0.12
2023-01-29T00:04:15.278Z,-0.04
2023-01-29T00:06:41.676Z,-0.07
2023-01-29T00:09:08.190Z,-0.08
2023-01-29T00:11:35.615Z,-0.04
2023-01-29T00:14:02.249Z,0.01
2023-01-29T00:16:28.716Z,-0.10
2023-01-29T00:18:55.133Z,-0.03
2023-01-29T00:21:22.711Z,0.04
2023-01-29T00:23:50.081Z,0.15
2023-01-29T00:26:17.076Z,0.16
2023-01-29T00:28:43.844Z,0.16
2023-01-29T00:31:24.684Z,0.09
2023-01-29T00:33:51.577Z,0.10
2023-01-29T00:36:19.941Z,-0.05
2023-01-29T00:38:54.535Z,-0.09
2023-01-29T00:41:40.353Z,0.07
2023-01-29T00:44:26.386Z,0.01
2023-01-29T00:46:53.016Z,-0.03
2023-01-29T00:49:19.774Z,-0.08
2023-01-29T00:52:06.324Z,-0.04
2023-01-29T00:54:33.298Z,-0.28
2023-01-29T00:57:00.117Z,-0.15
2023-01-29T00:59:26.552Z,-0.07
2023-01-29T01:02:11.623Z,0.08
2023-01-29T01:04:38.050Z,0.01
2023-01-29T01:07:04.649Z,-0.10
2023-01-29T01:09:49.605Z,-0.11
2023-01-29T01:12:15.988Z,-0.16
2023-01-29T01:14:43.254Z,-0.08
2023-01-29T01:17:10.042Z,-0.11
2023-01-29T01:19:36.764Z,-0.19
2023-01-29T01:22:04.880Z,-0.19
2023-01-29T01:24:32.026Z,-0.13
2023-01-29T01:26:58.683Z,0.00
2023-01-29T01:29:25.153Z,-0.05
2023-01-29T01:31:53.470Z,0.03
2023-01-29T01:34:21.987Z,-0.12
2023-01-29T01:36:48.914Z,-0.25
2023-01-29T01:39:15.422Z,-0.19
2023-01-29T01:41:42.567Z,-0.19
2023-01-29T01:44:47.453Z,-0.20
2023-01-29T01:47:15.511Z,-0.32
2023-01-29T01:49:43.024Z,-0.25
2023-01-29T01:52:10.582Z,-0.47
2023-01-29T01:54:37.025Z,-0.34
2023-01-29T01:57:09.643Z,-0.25
2023-01-29T01:59:38.684Z,-0.01
2023-01-29T02:02:25.818Z,0.01
2023-01-29T02:05:11.697Z,-0.18
2023-01-29T02:08:02.627Z,-0.32
2023-01-29T02:10:32.585Z,-0.20
2023-01-29T02:12:58.985Z,-0.23
2023-01-29T02:15:25.398Z,-0.33
2023-01-29T02:17:51.856Z,-0.28
2023-01-29T02:20:26.726Z,-0.46
2023-01-29T02:23:08.443Z,-0.46
2023-01-29T02:25:46.791Z,-0.54
2023-01-29T02:28:53.451Z,-0.40
2023-01-29T02:31:40.939Z,-0.25
2023-01-29T02:34:25.986Z,-0.20
2023-01-29T02:37:04.742Z,-0.31
2023-01-29T02:39:37.505Z,-0.46
2023-01-29T02:42:16.638Z,-0.42
2023-01-29T02:44:52.411Z,-0.53
2023-01-29T02:47:23.212Z,-0.47
2023-01-29T02:50:09.760Z,-0.51
2023-01-29T02:52:44.558Z,-0.42
2023-01-29T02:55:21.380Z,-0.48
2023-01-29T02:57:49.320Z,-0.40
2023-01-29T03:00:30.034Z,-0.46
2023-01-29T03:03:11.155Z,-0.55
2023-01-29T03:06:02.260Z,-0.61
2023-01-29T03:08:43.158Z,-0.71
2023-01-29T03:11:13.767Z,-0.63
2023-01-29T03:13:43.041Z,-0.41
2023-01-29T03:16:32.760Z,-0.64
2023-01-29T03:19:28.539Z,-0.51
2023-01-29T03:22:01.544Z,-0.49
2023-01-29T03:24:55.346Z,-0.51
2023-01-29T03:27:45.727Z,-0.48
2023-01-29T03:30:35.130Z,-0.56
2023-01-29T03:33:06.438Z,-0.56
2023-01-29T03:35:39.519Z,-0.66
2023-01-29T03:38:09.831Z,-0.72
2023-01-29T03:40:54.771Z,-0.70
2023-01-29T03:43:32.936Z,-0.78
2023-01-29T03:46:11.668Z,-0.77
2023-01-29T03:48:45.620Z,-0.58
2023-01-29T03:51:23.767Z,-0.51
2023-01-29T03:53:58.909Z,-0.47
2023-01-29T03:56:43.510Z,-0.57
2023-01-29T03:59:18.360Z,-0.79
2023-01-29T04:01:50.189Z,-0.92
2023-01-29T04:04:22.559Z,-0.79
2023-01-29T04:06:53.025Z,-0.76
2023-01-29T04:09:40.524Z,-0.65
2023-01-29T04:12:14.704Z,-0.60
2023-01-29T04:14:41.377Z,-0.52
2023-01-29T04:17:25.623Z,-0.61
2023-01-29T04:19:53.418Z,-0.69
2023-01-29T04:22:28.121Z,-0.77
2023-01-29T04:24:54.934Z,-0.69
2023-01-29T04:27:29.883Z,-0.74
2023-01-29T04:30:18.434Z,-0.89
2023-01-29T04:33:02.960Z,-1.02
2023-01-29T04:35:39.364Z,-0.80
2023-01-29T04:38:13.996Z,-0.80
2023-01-29T04:40:46.385Z,-0.67
2023-01-29T04:43:21.242Z,-0.65
2023-01-29T04:46:17.528Z,-0.67
2023-01-29T04:48:58.367Z,-0.85
2023-01-29T04:51:45.610Z,-0.81
2023-01-29T04:54:25.681Z,-0.96
2023-01-29T04:56:57.108Z,-0.79
2023-01-29T04:59:33.207Z,-0.78
2023-01-29T05:02:02.339Z,-0.84
2023-01-29T05:04:33.415Z,-0.90
2023-01-29T05:07:06.497Z,-0.90
2023-01-29T05:09:34.486Z,-0.91
2023-01-29T05:12:02.517Z,-1.00
2023-01-29T05:14:33.895Z,-0.95
2023-01-29T05:17:05.288Z,-0.82
2023-01-29T05:19:31.804Z,-0.72
2023-01-29T05:21:59.065Z,-0.78
2023-01-29T05:24:27.523Z,-1.02
2023-01-29T05:27:13.764Z,-1.01
2023-01-29T05:29:47.372Z,-0.94
2023-01-29T05:32:15.518Z,-0.85
2023-01-29T05:34:42.059Z,-0.95
2023-01-29T05:37:10.373Z,-0.76
2023-01-29T05:39:36.863Z,-0.82
2023-01-29T05:42:03.379Z,-0.86
2023-01-29T05:44:29.836Z,-1.05
2023-01-29T05:46:56.365Z,-1.11
2023-01-29T05:49:22.763Z,-1.01
2023-01-29T05:51:49.228Z,-1.07
2023-01-29T05:54:15.709Z,-0.93
2023-01-29T05:56:42.437Z,-1.13
2023-01-29T05:59:08.935Z,-1.19
2023-01-29T06:01:35.378Z,-1.00
2023-01-29T06:04:01.837Z,-1.10
2023-01-29T06:06:28.235Z,-0.96
2023-01-29T06:08:55.877Z,-1.10
2023-01-29T06:11:22.256Z,-1.00
2023-01-29T06:13:49.137Z,-0.97
2023-01-29T06:16:15.727Z,-1.02
2023-01-29T06:18:42.924Z,-0.93
2023-01-29T06:21:12.101Z,-1.02
2023-01-29T06:23:38.814Z,-1.07
2023-01-29T06:26:11.599Z,-1.17
2023-01-29T06:28:38.448Z,-1.06
2023-01-29T06:33:53.277Z,-1.14
2023-01-29T06:36:19.701Z,-1.18
2023-01-29T06:38:47.152Z,-1.24
2023-01-29T06:41:17.619Z,-1.02
2023-01-29T06:43:45.024Z,-0.95
2023-01-29T06:46:11.765Z,-0.93
2023-01-29T06:48:38.148Z,-0.97
2023-01-29T06:51:06.614Z,-1.16
2023-01-29T06:53:34.618Z,-1.20
2023-01-29T06:56:01.161Z,-1.15
2023-01-29T06:58:27.537Z,-1.37
2023-01-29T07:00:54.041Z,-1.40
2023-01-29T07:03:20.527Z,-1.15
2023-01-29T07:05:53.309Z,-1.03
2023-01-29T07:08:22.583Z,-1.16
2023-01-29T07:10:49.883Z,-1.29
2023-01-29T07:13:16.703Z,-1.20
2023-01-29T07:15:44.388Z,-1.16
2023-01-29T07:18:13.441Z,-1.15
2023-01-29T07:20:41.274Z,-1.11
2023-01-29T07:23:11.883Z,-1.04
2023-01-29T07:25:38.958Z,-1.07
2023-01-29T07:28:05.725Z,-1.10
2023-01-29T07:30:32.692Z,-0.97
2023-01-29T07:33:08.152Z,-1.19
2023-01-29T07:35:43.107Z,-1.21
2023-01-29T07:38:11.082Z,-1.05
2023-01-29T07:40:38.080Z,-1.06
2023-01-29T07:43:06.741Z,-1.07
2023-01-29T07:45:35.151Z,-1.04
2023-01-29T07:48:01.589Z,-0.94
2023-01-29T07:50:28.117Z,-0.85
2023-01-29T07:52:54.632Z,-0.85
2023-01-29T07:55:21.035Z,-0.77
2023-01-29T07:57:47.559Z,-0.82
2023-01-29T08:00:15.535Z,-0.83
2023-01-29T08:02:42.225Z,-0.71
2023-01-29T08:05:09.036Z,-0.81
2023-01-29T08:07:35.436Z,-0.89
2023-01-29T08:10:01.834Z,-0.92
2023-01-29T08:12:28.202Z,-0.68
2023-01-29T08:14:54.606Z,-0.62
2023-01-29T08:17:21.040Z,-0.55
2023-01-29T08:19:47.446Z,-0.54
2023-01-29T08:22:15.252Z,-0.55
2023-01-29T08:24:53.605Z,-0.61
2023-01-29T08:27:26.335Z,-0.48
2023-01-29T08:29:52.742Z,-0.37
2023-01-29T08:32:19.106Z,-0.38
2023-01-29T08:34:45.631Z,-0.30
2023-01-29T08:37:11.976Z,-0.30
2023-01-29T08:39:38.402Z,-0.21
2023-01-29T08:42:04.949Z,-0.24
2023-01-29T08:44:31.365Z,-0.20
2023-01-29T08:46:57.808Z,-0.11
2023-01-29T08:49:24.535Z,-0.08
2023-01-29T08:51:54.634Z,-0.02
2023-01-29T08:54:21.066Z,-0.01
2023-01-29T08:56:47.512Z,0.02
2023-01-29T08:59:14.243Z,0.12
2023-01-29T09:01:40.687Z,0.26
2023-01-29T09:04:07.510Z,0.36
2023-01-29T09:06:34.084Z,0.48
2023-01-29T09:09:00.669Z,0.47
2023-01-29T09:11:27.111Z,0.44
2023-01-29T09:13:53.501Z,0.54
2023-01-29T09:16:19.980Z,0.58
2023-01-29T09:18:46.428Z,0.59
2023-01-29T09:21:12.867Z,0.64
2023-01-29T09:23:39.342Z,0.75
2023-01-29T09:26:07.416Z,0.74
2023-01-29T09:28:33.871Z,0.85
2023-01-29T09:31:03.702Z,0.78
2023-01-29T09:33:31.023Z,0.79
2023-01-29T09:35:57.504Z,0.86
2023-01-29T09:38:23.899Z,0.99
2023-01-29T09:41:00.358Z,1.09
2023-01-29T09:43:55.586Z,1.18
2023-01-29T09:46:30.545Z,1.18
2023-01-29T09:49:24.724Z,1.25
2023-01-29T09:52:02.360Z,1.30
2023-01-29T09:54:34.981Z,1.36
2023-01-29T09:57:01.451Z,1.41
2023-01-29T09:59:31.090Z,1.37
2023-01-29T10:02:29.885Z,1.44
2023-01-29T10:05:17.809Z,1.56
2023-01-29T10:08:06.272Z,1.65
2023-01-29T10:10:55.997Z,1.71
2023-01-29T10:13:43.450Z,1.74
2023-01-29T10:16:36.058Z,1.79
2023-01-29T10:19:16.864Z,1.78
2023-01-29T10:22:01.955Z,1.80
2023-01-29T10:24:38.998Z,1.89
2023-01-29T10:27:18.869Z,1.98
2023-01-29T10:29:48.854Z,2.04
2023-01-29T10:32:21.325Z,2.05
2023-01-29T10:35:31.023Z,2.07
2023-01-29T10:38:02.135Z,2.16
2023-01-29T10:40:38.010Z,2.19
2023-01-29T10:43:17.482Z,2.23
2023-01-29T10:45:56.565Z,2.34
2023-01-29T10:48:40.694Z,2.36
2023-01-29T10:51:14.622Z,2.39
2023-01-29T10:53:49.305Z,2.39
2023-01-29T10:56:37.321Z,2.48
2023-01-29T10:59:15.519Z,2.50
2023-01-29T11:01:41.977Z,2.54
2023-01-29T11:04:11.957Z,2.59
2023-01-29T11:06:38.522Z,2.57
2023-01-29T11:09:29.156Z,2.71
2023-01-29T11:12:19.482Z,2.74
2023-01-29T11:15:11.689Z,2.80
2023-01-29T11:17:38.253Z,2.80
2023-01-29T11:20:25.011Z,2.83
2023-01-29T11:22:55.634Z,2.86
2023-01-29T11:25:22.477Z,2.89
2023-01-29T11:27:57.145Z,2.94
2023-01-29T11:30:43.821Z,2.96
2023-01-29T11:33:21.966Z,3.06
2023-01-29T11:35:48.538Z,3.09
2023-01-29T11:38:23.791Z,3.07
2023-01-29T11:40:50.941Z,3.15
2023-01-29T11:43:23.010Z,3.22
2023-01-29T11:45:53.287Z,3.23
2023-01-29T11:48:21.921Z,3.21
2023-01-29T11:50:53.581Z,3.20
2023-01-29T11:53:33.918Z,3.30
2023-01-29T11:56:01.553Z,3.32
2023-01-29T11:58:31.795Z,3.39
2023-01-29T12:00:59.879Z,3.38
2023-01-29T12:03:34.916Z,3.45
2023-01-29T12:06:22.347Z,3.47
2023-01-29T12:08:57.988Z,3.48
2023-01-29T12:11:31.216Z,3.41
2023-01-29T12:14:02.085Z,3.46
2023-01-29T12:16:49.696Z,3.36
2023-01-29T12:19:40.425Z,3.45
2023-01-29T12:22:43.513Z,3.53
2023-01-29T12:25:22.557Z,3.53
2023-01-29T12:28:07.851Z,3.55
2023-01-29T12:30:48.639Z,3.60
2023-01-29T12:33:40.351Z,3.59
2023-01-29T12:36:31.879Z,3.61
2023-01-29T12:38:59.276Z,3.62
2023-01-29T12:41:45.800Z,3.68
2023-01-29T12:44:25.654Z,3.70
2023-01-29T12:46:58.775Z,3.69
2023-01-29T12:49:28.174Z,3.69
2023-01-29T12:52:07.370Z,3.77
2023-01-29T12:55:00.538Z,3.87
2023-01-29T12:57:37.324Z,3.89
2023-01-29T13:00:25.421Z,3.96
2023-01-29T13:02:54.888Z,3.97
2023-01-29T13:05:48.679Z,4.01
2023-01-29T13:08:20.946Z,4.08
2023-01-29T13:10:51.652Z,4.07
2023-01-29T13:13:33.323Z,4.21
2023-01-29T13:16:01.478Z,4.12
2023-01-29T13:18:42.292Z,4.11
2023-01-29T13:21:21.928Z,4.11
2023-01-29T13:23:55.741Z,4.12
2023-01-29T13:26:23.162Z,4.17
2023-01-29T13:28:51.546Z,4.20
2023-01-29T13:31:36.615Z,4.19
2023-01-29T13:34:21.787Z,4.22
2023-01-29T13:36:51.554Z,4.19
2023-01-29T13:39:31.850Z,4.21
2023-01-29T13:42:01.096Z,4.27
2023-01-29T13:44:39.286Z,4.33
2023-01-29T13:47:08.849Z,4.30
2023-01-29T13:49:54.373Z,4.31
2023-01-29T13:52:43.168Z,4.41
2023-01-29T13:55:18.947Z,4.44
2023-01-29T13:57:46.100Z,4.38
2023-01-29T14:00:21.365Z,4.33
2023-01-29T14:02:56.850Z,4.40
2023-01-29T14:05:29.278Z,4.44
2023-01-29T14:07:55.596Z,4.41
2023-01-29T14:10:24.322Z,4.42
2023-01-29T14:12:52.868Z,4.45
2023-01-29T14:15:29.371Z,4.46
2023-01-29T14:17:59.895Z,4.42
2023-01-29T14:20:52.733Z,4.39
2023-01-29T14:23:36.177Z,4.45
2023-01-29T14:26:05.846Z,4.39
2023-01-29T14:28:33.993Z,4.45
2023-01-29T14:31:00.700Z,4.50
2023-01-29T14:33:38.011Z,4.50
2023-01-29T14:36:14.996Z,4.49
2023-01-29T14:38:51.067Z,4.53
2023-01-29T14:41:25.000Z,4.60
2023-01-29T14:43:51.450Z,4.57
2023-01-29T14:46:35.858Z,4.54
2023-01-29T14:49:02.861Z,4.56
2023-01-29T14:51:37.454Z,4.53
2023-01-29T14:54:06.131Z,4.48
2023-01-29T14:56:35.397Z,4.50
2023-01-29T14:59:22.009Z,4.55
2023-01-29T15:01:55.379Z,4.50
2023-01-29T15:04:27.918Z,4.48
2023-01-29T15:07:34.201Z,4.48
2023-01-29T15:10:22.290Z,4.45
2023-01-29T15:12:55.163Z,4.47
2023-01-29T15:15:36.821Z,4.48
2023-01-29T15:18:17.357Z,4.42
2023-01-29T15:20:44.027Z,4.40
2023-01-29T15:23:28.071Z,4.36
2023-01-29T15:25:57.809Z,4.31
2023-01-29T15:28:24.560Z,4.25
2023-01-29T15:30:55.727Z,4.23
2023-01-29T15:33:22.646Z,4.19
2023-01-29T15:35:51.641Z,4.19
2023-01-29T15:38:22.629Z,4.13
2023-01-29T15:41:19.509Z,4.11
2023-01-29T15:43:48.644Z,4.06
2023-01-29T15:46:26.933Z,4.00
2023-01-29T15:48:55.899Z,3.99
2023-01-29T15:51:28.030Z,3.90
2023-01-29T15:53:57.998Z,3.82
2023-01-29T15:56:29.502Z,3.84
2023-01-29T15:58:58.890Z,3.70
2023-01-29T16:01:29.117Z,3.62
2023-01-29T16:03:59.395Z,3.61
2023-01-29T16:06:26.833Z,3.38
2023-01-29T16:08:55.279Z,3.37
2023-01-29T16:11:21.904Z,3.40
2023-01-29T16:13:50.460Z,3.52
2023-01-29T16:16:23.642Z,3.48
2023-01-29T16:19:00.032Z,3.31
2023-01-29T16:21:38.149Z,3.25
2023-01-29T16:24:19.645Z,3.23
2023-01-29T16:26:49.255Z,3.24
2023-01-29T16:29:22.415Z,3.14
2023-01-29T16:31:50.887Z,3.09
2023-01-29T16:34:27.238Z,3.11
2023-01-29T16:36:55.519Z,2.91
2023-01-29T16:39:25.131Z,2.77
2023-01-29T16:42:21.371Z,2.84
2023-01-29T16:45:00.710Z,2.73
2023-01-29T16:47:33.204Z,2.65
2023-01-29T16:50:02.416Z,2.58
2023-01-29T16:52:33.986Z,2.56
2023-01-29T16:55:21.928Z,2.56
2023-01-29T16:57:57.140Z,2.49
2023-01-29T17:00:25.453Z,2.48
2023-01-29T17:03:02.940Z,2.62
2023-01-29T17:05:31.993Z,2.53
2023-01-29T17:07:59.229Z,2.44
2023-01-29T17:10:28.054Z,2.48
2023-01-29T17:13:05.149Z,2.52
2023-01-29T17:15:47.705Z,2.54
2023-01-29T17:18:22.607Z,2.54
2023-01-29T17:20:49.811Z,2.47
2023-01-29T17:23:16.602Z,2.43
2023-01-29T17:25:43.759Z,2.34
2023-01-29T17:28:13.532Z,2.16
2023-01-29T17:30:40.442Z,2.21
2023-01-29T17:33:15.732Z,2.02
2023-01-29T17:35:43.824Z,1.95
2023-01-29T17:38:25.565Z,1.91
2023-01-29T17:41:14.141Z,1.98
2023-01-29T17:43:40.620Z,1.94
2023-01-29T17:46:13.274Z,2.03
2023-01-29T17:48:40.046Z,2.01
2023-01-29T17:51:11.619Z,2.05
2023-01-29T17:53:46.694Z,1.92
2023-01-29T17:56:18.795Z,2.02
2023-01-29T17:58:45.383Z,2.12
2023-01-29T18:01:11.877Z,2.08
2023-01-29T18:03:38.430Z,2.01
2023-01-29T18:06:07.718Z,2.05
2023-01-29T18:08:36.927Z,1.94
2023-01-29T18:11:03.413Z,1.86
2023-01-29T18:13:29.820Z,1.88
2023-01-29T18:15:56.318Z,1.79
2023-01-29T18:18:24.150Z,1.69
2023-01-29T18:20:51.083Z,1.67
2023-01-29T18:23:17.634Z,1.71
2023-01-29T18:25:44.785Z,1.74
2023-01-29T18:28:17.790Z,1.71
2023-01-29T18:30:47.174Z,1.67
2023-01-29T18:33:14.397Z,1.63
2023-01-29T18:35:40.883Z,1.71
2023-01-29T18:38:07.460Z,1.69
2023-01-29T18:40:33.922Z,1.59
2023-01-29T18:43:00.892Z,1.52
2023-01-29T18:45:28.432Z,1.61
2023-01-29T18:47:55.252Z,1.46
2023-01-29T18:50:26.161Z,1.59
2023-01-29T18:52:53.778Z,1.43
2023-01-29T18:55:20.419Z,1.41
2023-01-29T18:58:33.743Z,1.54
2023-01-29T19:00:33.263Z,1.43
2023-01-29T19:02:59.849Z,1.31
2023-01-29T19:05:26.535Z,1.20
2023-01-29T19:07:52.959Z,1.18
2023-01-29T19:10:19.576Z,1.16
2023-01-29T19:12:46.068Z,1.20
2023-01-29T19:15:12.599Z,1.20
2023-01-29T19:17:39.317Z,1.17
2023-01-29T19:20:06.391Z,1.08
2023-01-29T19:22:33.092Z,1.03
2023-01-29T19:24:59.525Z,1.09
2023-01-29T19:27:30.178Z,1.24
2023-01-29T19:29:59.748Z,1.19
2023-01-29T19:32:28.758Z,0.99
2023-01-29T19:34:55.251Z,0.95
2023-01-29T19:37:21.802Z,1.07
2023-01-29T19:39:48.228Z,1.13
2023-01-29T19:42:14.752Z,0.94
2023-01-29T19:44:41.179Z,0.85
2023-01-29T19:47:07.685Z,0.99
2023-01-29T19:49:34.238Z,1.00
2023-01-29T19:52:01.709Z,0.97
2023-01-29T19:54:29.435Z,0.96
2023-01-29T19:56:56.567Z,0.99
2023-01-29T19:59:23.181Z,0.92
2023-01-29T20:01:49.665Z,0.93
2023-01-29T20:04:16.198Z,0.93
2023-01-29T20:06:42.590Z,1.00
2023-01-29T20:09:08.993Z,0.85
2023-01-29T20:11:35.462Z,0.74
2023-01-29T20:14:02.078Z,0.74
2023-01-29T20:16:28.553Z,0.72
2023-01-29T20:18:54.982Z,0.60
2023-01-29T20:21:41.753Z,0.71
2023-01-29T20:24:12.313Z,0.60
2023-01-29T20:26:38.994Z,0.73
2023-01-29T20:29:06.403Z,0.68
2023-01-29T20:31:33.647Z,0.79
2023-01-29T20:34:01.629Z,0.95
2023-01-29T20:36:28.407Z,0.89
2023-01-29T20:38:54.797Z,0.78
2023-01-29T20:41:21.647Z,0.99
2023-01-29T20:43:50.432Z,0.86
2023-01-29T20:46:17.215Z,0.92
2023-01-29T20:48:43.563Z,0.87
2023-01-29T20:51:13.635Z,0.75
2023-01-29T20:53:41.053Z,0.78
2023-01-29T20:56:07.991Z,0.74
2023-01-29T20:58:34.950Z,0.70
2023-01-29T21:01:01.739Z,0.65
2023-01-29T21:03:28.155Z,0.77
2023-01-29T21:05:58.934Z,0.82
2023-01-29T21:08:25.361Z,0.73
2023-01-29T21:10:52.992Z,0.68
2023-01-29T21:13:19.386Z,0.81
2023-01-29T21:15:45.921Z,0.81
2023-01-29T21:18:12.330Z,0.80
2023-01-29T21:20:38.751Z,0.74
2023-01-29T21:23:07.044Z,0.71
2023-01-29T21:25:33.891Z,0.60
2023-01-29T21:28:00.788Z,0.64
2023-01-29T21:30:27.240Z,0.59
2023-01-29T21:32:53.728Z,0.84
2023-01-29T21:35:20.183Z,0.78
2023-01-29T21:37:46.695Z,0.59
2023-01-29T21:40:13.758Z,0.42
2023-01-29T21:42:58.796Z,0.41
2023-01-29T21:45:25.203Z,0.54
2023-01-29T21:47:51.693Z,0.49
2023-01-29T21:50:18.631Z,0.48
2023-01-29T21:52:45.217Z,0.51
2023-01-29T21:55:11.643Z,0.50
2023-01-29T21:57:38.140Z,0.52
2023-01-29T22:00:05.159Z,0.42
2023-01-29T22:02:32.108Z,0.52
2023-01-29T22:05:16.553Z,0.54
2023-01-29T22:07:44.423Z,0.51
2023-01-29T22:10:12.050Z,0.53
2023-01-29T22:12:38.996Z,0.54
2023-01-29T22:15:06.749Z,0.57
2023-01-29T22:17:33.853Z,0.57
2023-01-29T22:20:00.247Z,0.57
2023-01-29T22:22:26.889Z,0.62
2023-01-29T22:24:55.039Z,0.62
2023-01-29T22:27:21.457Z,0.47
2023-01-29T22:29:48.101Z,0.31
2023-01-29T22:32:14.570Z,0.28
2023-01-29T22:34:40.967Z,0.21
2023-01-29T22:37:07.469Z,0.20
2023-01-29T22:39:33.927Z,0.17
2023-01-29T22:42:00.307Z,0.03
2023-01-29T22:44:26.732Z,0.08
2023-01-29T22:46:53.178Z,0.10
2023-01-29T22:49:19.711Z,0.16
2023-01-29T22:51:46.962Z,0.13
2023-01-29T22:54:15.376Z,0.13
2023-01-29T22:56:41.788Z,0.19
2023-01-29T22:59:09.957Z,0.14
2023-01-29T23:01:36.390Z,0.20
2023-01-29T23:04:02.828Z,-0.03
2023-01-29T23:06:29.221Z,0.00
2023-01-29T23:08:55.717Z,0.01
2023-01-29T23:11:23.485Z,0.11
2023-01-29T23:13:54.672Z,0.02
2023-01-29T23:16:27.764Z,0.08
2023-01-29T23:18:56.130Z,-0.09
2023-01-29T23:21:25.807Z,0.02
2023-01-29T23:23:59.268Z,0.11
2023-01-29T23:26:44.896Z,-0.03
2023-01-29T23:29:11.624Z,0.07
2023-01-29T23:31:38.573Z,-0.02
2023-01-29T23:34:05.118Z,-0.06
2023-01-29T23:36:31.527Z,-0.11
2023-01-29T23:38:57.968Z,-0.09
2023-01-29T23:41:24.611Z,-0.04
2023-01-29T23:43:52.785Z,-0.11
2023-01-29T23:46:19.231Z,-0.13
2023-01-29T23:48:45.768Z,0.05
2023-01-29T23:51:12.288Z,0.09
2023-01-29T23:53:38.813Z,0.08
2023-01-29T23:56:05.868Z,0.08
2023-01-29T23:58:33.068Z,0.16
